sensor_id;sensor_type;location;lat;lon;timestamp;P1;durP1;ratioP1;P2;durP2;ratioP2
59486;SDS011;45298;54.918;73.504;2024-03-02T00:01:37;0.63;;;0.55;;
59486;SDS011;45298;54.918;73.504;2024-03-02T00:04:07;0.38;;;0.38;;
59486;SDS011;45298;54.918;73.504;2024-03-02T00:06:36;1.35;;;0.80;;
59486;SDS011;45298;54.918;73.504;2024-03-02T00:09:05;2.35;;;1.27;;
59486;SDS011;45298;54.918;73.504;2024-03-02T00:11:40;0.43;;;0.43;;
59486;SDS011;45298;54.918;73.504;2024-03-02T00:14:09;1.20;;;0.95;;
59486;SDS011;45298;54.918;73.504;2024-03-02T00:16:38;0.30;;;0.30;;
59486;SDS011;45298;54.918;73.504;2024-03-02T00:19:07;0.25;;;0.25;;
59486;SDS011;45298;54.918;73.504;2024-03-02T00:21:38;0.50;;;0.50;;
59486;SDS011;45298;54.918;73.504;2024-03-02T00:24:08;0.98;;;0.50;;
59486;SDS011;45298;54.918;73.504;2024-03-02T00:27:05;0.20;;;0.20;;
59486;SDS011;45298;54.918;73.504;2024-03-02T00:29:35;4.75;;;1.15;;
59486;SDS011;45298;54.918;73.504;2024-03-02T00:32:08;0.47;;;0.35;;
59486;SDS011;45298;54.918;73.504;2024-03-02T00:34:41;3.40;;;1.60;;
59486;SDS011;45298;54.918;73.504;2024-03-02T00:37:11;10.80;;;4.22;;
59486;SDS011;45298;54.918;73.504;2024-03-02T00:39:40;9.40;;;2.08;;
59486;SDS011;45298;54.918;73.504;2024-03-02T00:42:09;29.00;;;11.15;;
59486;SDS011;45298;54.918;73.504;2024-03-02T00:44:40;0.50;;;0.50;;
59486;SDS011;45298;54.918;73.504;2024-03-02T00:47:09;6.20;;;1.67;;
59486;SDS011;45298;54.918;73.504;2024-03-02T00:49:37;53.33;;;16.08;;
59486;SDS011;45298;54.918;73.504;2024-03-02T00:52:08;13.52;;;6.05;;
59486;SDS011;45298;54.918;73.504;2024-03-02T00:54:36;3.53;;;1.77;;
59486;SDS011;45298;54.918;73.504;2024-03-02T00:57:06;32.58;;;12.38;;
59486;SDS011;45298;54.918;73.504;2024-03-02T00:59:40;6.57;;;3.70;;
59486;SDS011;45298;54.918;73.504;2024-03-02T01:02:09;10.25;;;4.97;;
59486;SDS011;45298;54.918;73.504;2024-03-02T01:04:37;7.65;;;3.85;;
59486;SDS011;45298;54.918;73.504;2024-03-02T01:07:07;4.57;;;1.98;;
59486;SDS011;45298;54.918;73.504;2024-03-02T01:09:35;7.85;;;4.32;;
59486;SDS011;45298;54.918;73.504;2024-03-02T01:12:04;5.32;;;2.63;;
59486;SDS011;45298;54.918;73.504;2024-03-02T01:14:33;0.55;;;0.40;;
59486;SDS011;45298;54.918;73.504;2024-03-02T01:17:03;0.52;;;0.52;;
59486;SDS011;45298;54.918;73.504;2024-03-02T01:19:32;1.50;;;0.60;;
59486;SDS011;45298;54.918;73.504;2024-03-02T01:22:01;0.15;;;0.15;;
59486;SDS011;45298;54.918;73.504;2024-03-02T01:24:31;0.10;;;0.10;;
59486;SDS011;45298;54.918;73.504;2024-03-02T01:26:59;0.50;;;0.45;;
59486;SDS011;45298;54.918;73.504;2024-03-02T01:29:28;1.17;;;0.55;;
59486;SDS011;45298;54.918;73.504;2024-03-02T01:31:58;0.20;;;0.20;;
59486;SDS011;45298;54.918;73.504;2024-03-02T01:34:27;0.10;;;0.10;;
59486;SDS011;45298;54.918;73.504;2024-03-02T01:36:56;0.55;;;0.40;;
59486;SDS011;45298;54.918;73.504;2024-03-02T01:39:25;0.40;;;0.40;;
59486;SDS011;45298;54.918;73.504;2024-03-02T01:41:54;0.82;;;0.70;;
59486;SDS011;45298;54.918;73.504;2024-03-02T01:44:24;0.60;;;0.40;;
59486;SDS011;45298;54.918;73.504;2024-03-02T01:46:53;0.50;;;0.40;;
59486;SDS011;45298;54.918;73.504;2024-03-02T01:49:22;0.52;;;0.35;;
59486;SDS011;45298;54.918;73.504;2024-03-02T01:51:51;0.30;;;0.30;;
59486;SDS011;45298;54.918;73.504;2024-03-02T01:54:20;1.55;;;0.40;;
59486;SDS011;45298;54.918;73.504;2024-03-02T01:56:50;0.40;;;0.40;;
59486;SDS011;45298;54.918;73.504;2024-03-02T01:59:22;0.10;;;0.10;;
59486;SDS011;45298;54.918;73.504;2024-03-02T02:01:51;0.40;;;0.28;;
59486;SDS011;45298;54.918;73.504;2024-03-02T02:04:20;0.55;;;0.38;;
59486;SDS011;45298;54.918;73.504;2024-03-02T02:06:55;0.30;;;0.30;;
59486;SDS011;45298;54.918;73.504;2024-03-02T02:09:24;0.20;;;0.20;;
59486;SDS011;45298;54.918;73.504;2024-03-02T02:11:53;0.45;;;0.45;;
59486;SDS011;45298;54.918;73.504;2024-03-02T02:14:22;0.65;;;0.65;;
59486;SDS011;45298;54.918;73.504;2024-03-02T02:16:51;0.28;;;0.28;;
59486;SDS011;45298;54.918;73.504;2024-03-02T02:19:20;1.02;;;0.52;;
59486;SDS011;45298;54.918;73.504;2024-03-02T02:21:49;0.77;;;0.77;;
59486;SDS011;45298;54.918;73.504;2024-03-02T02:24:18;1.98;;;0.93;;
59486;SDS011;45298;54.918;73.504;2024-03-02T02:26:47;0.55;;;0.55;;
59486;SDS011;45298;54.918;73.504;2024-03-02T02:29:16;0.30;;;0.30;;
59486;SDS011;45298;54.918;73.504;2024-03-02T02:31:45;0.63;;;0.63;;
59486;SDS011;45298;54.918;73.504;2024-03-02T02:34:14;0.55;;;0.40;;
59486;SDS011;45298;54.918;73.504;2024-03-02T02:36:43;1.27;;;0.40;;
59486;SDS011;45298;54.918;73.504;2024-03-02T02:39:13;0.43;;;0.35;;
59486;SDS011;45298;54.918;73.504;2024-03-02T02:41:45;0.55;;;0.55;;
59486;SDS011;45298;54.918;73.504;2024-03-02T02:44:14;2.10;;;1.10;;
59486;SDS011;45298;54.918;73.504;2024-03-02T02:46:42;2.42;;;1.27;;
59486;SDS011;45298;54.918;73.504;2024-03-02T02:49:11;5.78;;;3.50;;
59486;SDS011;45298;54.918;73.504;2024-03-02T02:51:40;14.10;;;4.70;;
59486;SDS011;45298;54.918;73.504;2024-03-02T02:54:09;4.75;;;1.23;;
59486;SDS011;45298;54.918;73.504;2024-03-02T02:56:38;4.95;;;2.42;;
59486;SDS011;45298;54.918;73.504;2024-03-02T02:59:07;18.25;;;4.70;;
59486;SDS011;45298;54.918;73.504;2024-03-02T03:01:35;15.13;;;4.57;;
59486;SDS011;45298;54.918;73.504;2024-03-02T03:04:05;6.28;;;2.30;;
59486;SDS011;45298;54.918;73.504;2024-03-02T03:06:36;6.68;;;2.78;;
59486;SDS011;45298;54.918;73.504;2024-03-02T03:09:07;4.93;;;2.70;;
59486;SDS011;45298;54.918;73.504;2024-03-02T03:11:38;0.85;;;0.85;;
59486;SDS011;45298;54.918;73.504;2024-03-02T03:14:07;1.25;;;1.13;;
59486;SDS011;45298;54.918;73.504;2024-03-02T03:16:36;0.20;;;0.20;;
59486;SDS011;45298;54.918;73.504;2024-03-02T03:19:05;0.68;;;0.60;;
59486;SDS011;45298;54.918;73.504;2024-03-02T03:21:34;0.70;;;0.70;;
59486;SDS011;45298;54.918;73.504;2024-03-02T03:24:03;0.95;;;0.57;;
59486;SDS011;45298;54.918;73.504;2024-03-02T03:26:33;0.40;;;0.40;;
59486;SDS011;45298;54.918;73.504;2024-03-02T03:29:04;1.30;;;0.90;;
59486;SDS011;45298;54.918;73.504;2024-03-02T03:31:34;0.30;;;0.30;;
59486;SDS011;45298;54.918;73.504;2024-03-02T03:34:04;1.65;;;0.38;;
59486;SDS011;45298;54.918;73.504;2024-03-02T03:36:32;0.75;;;0.40;;
59486;SDS011;45298;54.918;73.504;2024-03-02T03:39:02;0.40;;;0.30;;
59486;SDS011;45298;54.918;73.504;2024-03-02T03:44:19;1.35;;;0.38;;
59486;SDS011;45298;54.918;73.504;2024-03-02T03:46:47;1.00;;;0.57;;
59486;SDS011;45298;54.918;73.504;2024-03-02T03:49:16;0.28;;;0.28;;
59486;SDS011;45298;54.918;73.504;2024-03-02T03:51:45;0.40;;;0.40;;
59486;SDS011;45298;54.918;73.504;2024-03-02T03:54:14;3.05;;;0.85;;
59486;SDS011;45298;54.918;73.504;2024-03-02T03:56:43;1.52;;;0.73;;
59486;SDS011;45298;54.918;73.504;2024-03-02T03:59:12;1.52;;;0.93;;
59486;SDS011;45298;54.918;73.504;2024-03-02T04:01:41;1.17;;;0.63;;
59486;SDS011;45298;54.918;73.504;2024-03-02T04:04:10;2.88;;;1.10;;
59486;SDS011;45298;54.918;73.504;2024-03-02T04:06:39;1.08;;;0.73;;
59486;SDS011;45298;54.918;73.504;2024-03-02T04:09:27;2.08;;;0.75;;
59486;SDS011;45298;54.918;73.504;2024-03-02T04:11:55;0.90;;;0.57;;
59486;SDS011;45298;54.918;73.504;2024-03-02T04:14:24;4.32;;;0.55;;
59486;SDS011;45298;54.918;73.504;2024-03-02T04:16:53;3.30;;;0.32;;
59486;SDS011;45298;54.918;73.504;2024-03-02T04:19:21;3.10;;;1.00;;
59486;SDS011;45298;54.918;73.504;2024-03-02T04:21:50;0.70;;;0.70;;
59486;SDS011;45298;54.918;73.504;2024-03-02T04:24:19;2.35;;;1.13;;
59486;SDS011;45298;54.918;73.504;2024-03-02T04:26:48;1.38;;;0.68;;
59486;SDS011;45298;54.918;73.504;2024-03-02T04:29:16;2.17;;;0.60;;
59486;SDS011;45298;54.918;73.504;2024-03-02T04:31:45;0.17;;;0.17;;
59486;SDS011;45298;54.918;73.504;2024-03-02T04:34:16;0.77;;;0.68;;
59486;SDS011;45298;54.918;73.504;2024-03-02T04:36:45;0.10;;;0.10;;
59486;SDS011;45298;54.918;73.504;2024-03-02T04:39:14;0.85;;;0.50;;
59486;SDS011;45298;54.918;73.504;2024-03-02T04:41:43;1.02;;;0.20;;
59486;SDS011;45298;54.918;73.504;2024-03-02T04:44:12;0.65;;;0.40;;
59486;SDS011;45298;54.918;73.504;2024-03-02T04:46:40;0.63;;;0.43;;
59486;SDS011;45298;54.918;73.504;2024-03-02T04:49:12;0.85;;;0.55;;
59486;SDS011;45298;54.918;73.504;2024-03-02T04:51:41;0.60;;;0.50;;
59486;SDS011;45298;54.918;73.504;2024-03-02T04:54:12;0.52;;;0.30;;
59486;SDS011;45298;54.918;73.504;2024-03-02T04:56:42;0.75;;;0.47;;
59486;SDS011;45298;54.918;73.504;2024-03-02T04:59:18;0.70;;;0.52;;
59486;SDS011;45298;54.918;73.504;2024-03-02T05:01:47;0.20;;;0.15;;
59486;SDS011;45298;54.918;73.504;2024-03-02T05:04:16;0.20;;;0.20;;
59486;SDS011;45298;54.918;73.504;2024-03-02T05:06:44;0.30;;;0.30;;
59486;SDS011;45298;54.918;73.504;2024-03-02T05:09:20;0.20;;;0.20;;
59486;SDS011;45298;54.918;73.504;2024-03-02T05:11:49;0.50;;;0.30;;
59486;SDS011;45298;54.918;73.504;2024-03-02T05:14:36;0.20;;;0.20;;
59486;SDS011;45298;54.918;73.504;2024-03-02T05:17:09;0.32;;;0.32;;
59486;SDS011;45298;54.918;73.504;2024-03-02T05:19:57;0.57;;;0.57;;
59486;SDS011;45298;54.918;73.504;2024-03-02T05:22:26;0.22;;;0.22;;
59486;SDS011;45298;54.918;73.504;2024-03-02T05:24:57;0.40;;;0.40;;
59486;SDS011;45298;54.918;73.504;2024-03-02T05:27:28;0.40;;;0.38;;
59486;SDS011;45298;54.918;73.504;2024-03-02T05:29:56;3.38;;;0.85;;
59486;SDS011;45298;54.918;73.504;2024-03-02T05:32:26;0.50;;;0.50;;
59486;SDS011;45298;54.918;73.504;2024-03-02T05:34:58;0.20;;;0.20;;
59486;SDS011;45298;54.918;73.504;2024-03-02T05:37:29;0.68;;;0.57;;
59486;SDS011;45298;54.918;73.504;2024-03-02T05:39:58;1.95;;;1.00;;
59486;SDS011;45298;54.918;73.504;2024-03-02T05:42:27;2.17;;;0.90;;
59486;SDS011;45298;54.918;73.504;2024-03-02T05:44:57;1.60;;;0.90;;
59486;SDS011;45298;54.918;73.504;2024-03-02T05:47:26;2.10;;;1.08;;
59486;SDS011;45298;54.918;73.504;2024-03-02T05:49:55;2.03;;;0.77;;
59486;SDS011;45298;54.918;73.504;2024-03-02T05:52:24;0.38;;;0.35;;
59486;SDS011;45298;54.918;73.504;2024-03-02T05:54:53;0.75;;;0.63;;
59486;SDS011;45298;54.918;73.504;2024-03-02T05:57:24;0.40;;;0.40;;
59486;SDS011;45298;54.918;73.504;2024-03-02T06:00:22;0.88;;;0.57;;
59486;SDS011;45298;54.918;73.504;2024-03-02T06:02:51;3.13;;;0.65;;
59486;SDS011;45298;54.918;73.504;2024-03-02T06:05:20;1.02;;;0.73;;
59486;SDS011;45298;54.918;73.504;2024-03-02T06:08:08;0.30;;;0.30;;
59486;SDS011;45298;54.918;73.504;2024-03-02T06:10:37;1.30;;;0.30;;
59486;SDS011;45298;54.918;73.504;2024-03-02T06:13:06;0.30;;;0.30;;
59486;SDS011;45298;54.918;73.504;2024-03-02T06:15:35;0.40;;;0.30;;
59486;SDS011;45298;54.918;73.504;2024-03-02T06:18:04;2.20;;;1.23;;
59486;SDS011;45298;54.918;73.504;2024-03-02T06:20:35;0.85;;;0.73;;
59486;SDS011;45298;54.918;73.504;2024-03-02T06:23:05;1.25;;;0.47;;
59486;SDS011;45298;54.918;73.504;2024-03-02T06:25:34;0.70;;;0.70;;
59486;SDS011;45298;54.918;73.504;2024-03-02T06:28:03;2.10;;;1.13;;
59486;SDS011;45298;54.918;73.504;2024-03-02T06:30:32;0.65;;;0.40;;
59486;SDS011;45298;54.918;73.504;2024-03-02T06:33:01;2.28;;;1.23;;
59486;SDS011;45298;54.918;73.504;2024-03-02T06:35:31;1.55;;;0.85;;
59486;SDS011;45298;54.918;73.504;2024-03-02T06:38:19;1.63;;;1.20;;
59486;SDS011;45298;54.918;73.504;2024-03-02T06:40:48;0.82;;;0.50;;
59486;SDS011;45298;54.918;73.504;2024-03-02T06:43:17;1.75;;;0.70;;
59486;SDS011;45298;54.918;73.504;2024-03-02T06:45:46;2.47;;;0.93;;
59486;SDS011;45298;54.918;73.504;2024-03-02T06:48:16;4.15;;;1.67;;
59486;SDS011;45298;54.918;73.504;2024-03-02T06:50:48;1.98;;;0.90;;
59486;SDS011;45298;54.918;73.504;2024-03-02T06:53:17;2.28;;;1.00;;
59486;SDS011;45298;54.918;73.504;2024-03-02T06:55:47;0.38;;;0.38;;
59486;SDS011;45298;54.918;73.504;2024-03-02T06:58:16;2.83;;;1.00;;
59486;SDS011;45298;54.918;73.504;2024-03-02T07:00:44;0.65;;;0.50;;
59486;SDS011;45298;54.918;73.504;2024-03-02T07:03:13;0.70;;;0.70;;
59486;SDS011;45298;54.918;73.504;2024-03-02T07:05:42;0.80;;;0.68;;
59486;SDS011;45298;54.918;73.504;2024-03-02T07:08:11;2.15;;;0.93;;
59486;SDS011;45298;54.918;73.504;2024-03-02T07:10:39;0.52;;;0.52;;
59486;SDS011;45298;54.918;73.504;2024-03-02T07:13:27;5.85;;;2.13;;
59486;SDS011;45298;54.918;73.504;2024-03-02T07:15:56;3.65;;;1.75;;
59486;SDS011;45298;54.918;73.504;2024-03-02T07:18:31;2.25;;;0.70;;
59486;SDS011;45298;54.918;73.504;2024-03-02T07:21:01;0.88;;;0.80;;
59486;SDS011;45298;54.918;73.504;2024-03-02T07:23:33;1.45;;;0.70;;
59486;SDS011;45298;54.918;73.504;2024-03-02T07:26:03;1.90;;;0.98;;
59486;SDS011;45298;54.918;73.504;2024-03-02T07:28:34;3.38;;;2.40;;
59486;SDS011;45298;54.918;73.504;2024-03-02T07:31:21;2.08;;;1.30;;
59486;SDS011;45298;54.918;73.504;2024-03-02T07:33:51;1.25;;;0.80;;
59486;SDS011;45298;54.918;73.504;2024-03-02T07:36:19;3.08;;;1.00;;
59486;SDS011;45298;54.918;73.504;2024-03-02T07:38:48;1.23;;;0.65;;
59486;SDS011;45298;54.918;73.504;2024-03-02T07:41:18;5.07;;;0.65;;
59486;SDS011;45298;54.918;73.504;2024-03-02T07:43:47;2.08;;;1.30;;
59486;SDS011;45298;54.918;73.504;2024-03-02T07:46:16;1.40;;;1.05;;
59486;SDS011;45298;54.918;73.504;2024-03-02T07:48:45;2.17;;;1.00;;
59486;SDS011;45298;54.918;73.504;2024-03-02T07:51:16;4.72;;;1.55;;
59486;SDS011;45298;54.918;73.504;2024-03-02T07:53:45;1.20;;;0.85;;
59486;SDS011;45298;54.918;73.504;2024-03-02T07:56:14;0.70;;;0.60;;
59486;SDS011;45298;54.918;73.504;2024-03-02T07:58:50;3.25;;;1.65;;
59486;SDS011;45298;54.918;73.504;2024-03-02T08:01:18;3.25;;;1.42;;
59486;SDS011;45298;54.918;73.504;2024-03-02T08:03:48;5.68;;;1.48;;
59486;SDS011;45298;54.918;73.504;2024-03-02T08:06:22;2.25;;;1.20;;
59486;SDS011;45298;54.918;73.504;2024-03-02T08:08:51;2.33;;;1.50;;
59486;SDS011;45298;54.918;73.504;2024-03-02T08:11:20;3.42;;;1.58;;
59486;SDS011;45298;54.918;73.504;2024-03-02T08:13:49;0.55;;;0.55;;
59486;SDS011;45298;54.918;73.504;2024-03-02T08:16:21;6.32;;;1.75;;
59486;SDS011;45298;54.918;73.504;2024-03-02T08:21:39;1.70;;;0.73;;
59486;SDS011;45298;54.918;73.504;2024-03-02T08:24:08;0.47;;;0.47;;
59486;SDS011;45298;54.918;73.504;2024-03-02T08:26:38;3.30;;;1.42;;
59486;SDS011;45298;54.918;73.504;2024-03-02T08:29:07;3.58;;;1.48;;
59486;SDS011;45298;54.918;73.504;2024-03-02T08:31:36;1.60;;;0.65;;
59486;SDS011;45298;54.918;73.504;2024-03-02T08:34:08;4.75;;;2.22;;
59486;SDS011;45298;54.918;73.504;2024-03-02T08:36:37;1.45;;;0.98;;
59486;SDS011;45298;54.918;73.504;2024-03-02T08:39:08;2.03;;;1.17;;
59486;SDS011;45298;54.918;73.504;2024-03-02T08:41:46;0.52;;;0.45;;
59486;SDS011;45298;54.918;73.504;2024-03-02T08:44:16;2.08;;;1.55;;
59486;SDS011;45298;54.918;73.504;2024-03-02T08:46:45;0.75;;;0.57;;
59486;SDS011;45298;54.918;73.504;2024-03-02T08:49:15;3.50;;;1.35;;
59486;SDS011;45298;54.918;73.504;2024-03-02T08:51:44;3.40;;;1.05;;
59486;SDS011;45298;54.918;73.504;2024-03-02T08:54:13;3.05;;;1.08;;
59486;SDS011;45298;54.918;73.504;2024-03-02T08:56:42;1.38;;;0.65;;
59486;SDS011;45298;54.918;73.504;2024-03-02T08:59:10;3.20;;;1.13;;
59486;SDS011;45298;54.918;73.504;2024-03-02T09:01:39;2.08;;;1.20;;
59486;SDS011;45298;54.918;73.504;2024-03-02T09:04:09;2.22;;;1.02;;
59486;SDS011;45298;54.918;73.504;2024-03-02T09:06:38;0.70;;;0.60;;
59486;SDS011;45298;54.918;73.504;2024-03-02T09:09:07;3.72;;;1.20;;
59486;SDS011;45298;54.918;73.504;2024-03-02T09:11:36;1.55;;;1.30;;
59486;SDS011;45298;54.918;73.504;2024-03-02T09:14:05;2.13;;;0.95;;
59486;SDS011;45298;54.918;73.504;2024-03-02T09:16:34;0.40;;;0.40;;
59486;SDS011;45298;54.918;73.504;2024-03-02T09:19:03;2.20;;;0.95;;
59486;SDS011;45298;54.918;73.504;2024-03-02T09:21:32;1.30;;;0.90;;
59486;SDS011;45298;54.918;73.504;2024-03-02T09:24:01;6.65;;;2.08;;
59486;SDS011;45298;54.918;73.504;2024-03-02T09:26:31;1.13;;;0.57;;
59486;SDS011;45298;54.918;73.504;2024-03-02T09:29:00;0.70;;;0.45;;
59486;SDS011;45298;54.918;73.504;2024-03-02T09:31:29;0.82;;;0.73;;
59486;SDS011;45298;54.918;73.504;2024-03-02T09:33:58;1.23;;;0.40;;
59486;SDS011;45298;54.918;73.504;2024-03-02T09:36:27;0.95;;;0.40;;
59486;SDS011;45298;54.918;73.504;2024-03-02T09:38:56;1.75;;;0.73;;
59486;SDS011;45298;54.918;73.504;2024-03-02T09:41:25;2.42;;;0.77;;
59486;SDS011;45298;54.918;73.504;2024-03-02T09:43:54;1.92;;;1.30;;
59486;SDS011;45298;54.918;73.504;2024-03-02T09:46:23;1.35;;;0.85;;
59486;SDS011;45298;54.918;73.504;2024-03-02T09:48:52;1.85;;;1.27;;
59486;SDS011;45298;54.918;73.504;2024-03-02T09:51:22;2.17;;;1.17;;
59486;SDS011;45298;54.918;73.504;2024-03-02T09:53:51;0.80;;;0.80;;
59486;SDS011;45298;54.918;73.504;2024-03-02T09:56:29;1.63;;;0.68;;
59486;SDS011;45298;54.918;73.504;2024-03-02T09:58:58;0.88;;;0.88;;
59486;SDS011;45298;54.918;73.504;2024-03-02T10:01:27;1.80;;;0.82;;
59486;SDS011;45298;54.918;73.504;2024-03-02T10:03:59;1.23;;;0.60;;
59486;SDS011;45298;54.918;73.504;2024-03-02T10:06:30;1.20;;;0.52;;
59486;SDS011;45298;54.918;73.504;2024-03-02T10:08:59;0.30;;;0.30;;
59486;SDS011;45298;54.918;73.504;2024-03-02T10:11:28;0.50;;;0.50;;
59486;SDS011;45298;54.918;73.504;2024-03-02T10:14:09;0.52;;;0.52;;
59486;SDS011;45298;54.918;73.504;2024-03-02T10:16:40;2.65;;;1.10;;
59486;SDS011;45298;54.918;73.504;2024-03-02T10:19:23;0.30;;;0.30;;
59486;SDS011;45298;54.918;73.504;2024-03-02T10:21:55;1.75;;;0.93;;
59486;SDS011;45298;54.918;73.504;2024-03-02T10:24:36;0.38;;;0.38;;
59486;SDS011;45298;54.918;73.504;2024-03-02T10:27:10;0.57;;;0.52;;
59486;SDS011;45298;54.918;73.504;2024-03-02T10:29:51;1.33;;;0.68;;
59486;SDS011;45298;54.918;73.504;2024-03-02T10:32:21;0.20;;;0.20;;
59486;SDS011;45298;54.918;73.504;2024-03-02T10:34:51;0.32;;;0.30;;
59486;SDS011;45298;54.918;73.504;2024-03-02T10:37:20;0.45;;;0.43;;
59486;SDS011;45298;54.918;73.504;2024-03-02T10:39:49;0.22;;;0.22;;
59486;SDS011;45298;54.918;73.504;2024-03-02T10:42:20;0.80;;;0.35;;
59486;SDS011;45298;54.918;73.504;2024-03-02T10:44:51;0.28;;;0.28;;
59486;SDS011;45298;54.918;73.504;2024-03-02T10:47:20;1.10;;;0.73;;
59486;SDS011;45298;54.918;73.504;2024-03-02T10:49:51;0.52;;;0.52;;
59486;SDS011;45298;54.918;73.504;2024-03-02T10:52:22;1.38;;;0.55;;
59486;SDS011;45298;54.918;73.504;2024-03-02T10:54:52;0.75;;;0.43;;
59486;SDS011;45298;54.918;73.504;2024-03-02T10:57:21;0.25;;;0.25;;
59486;SDS011;45298;54.918;73.504;2024-03-02T10:59:55;0.43;;;0.30;;
59486;SDS011;45298;54.918;73.504;2024-03-02T11:02:29;0.85;;;0.63;;
59486;SDS011;45298;54.918;73.504;2024-03-02T11:05:00;1.42;;;0.60;;
59486;SDS011;45298;54.918;73.504;2024-03-02T11:07:37;2.78;;;1.73;;
59486;SDS011;45298;54.918;73.504;2024-03-02T11:10:07;1.35;;;0.70;;
59486;SDS011;45298;54.918;73.504;2024-03-02T11:12:44;1.50;;;0.80;;
59486;SDS011;45298;54.918;73.504;2024-03-02T11:15:29;1.10;;;0.73;;
59486;SDS011;45298;54.918;73.504;2024-03-02T11:17:58;3.20;;;0.93;;
59486;SDS011;45298;54.918;73.504;2024-03-02T11:20:28;4.00;;;1.42;;
59486;SDS011;45298;54.918;73.504;2024-03-02T11:22:57;4.25;;;2.35;;
59486;SDS011;45298;54.918;73.504;2024-03-02T11:25:36;3.20;;;1.48;;
59486;SDS011;45298;54.918;73.504;2024-03-02T11:28:05;3.70;;;1.38;;
59486;SDS011;45298;54.918;73.504;2024-03-02T11:33:07;3.45;;;1.73;;
59486;SDS011;45298;54.918;73.504;2024-03-02T11:35:43;1.27;;;0.70;;
59486;SDS011;45298;54.918;73.504;2024-03-02T11:38:35;2.75;;;1.27;;
59486;SDS011;45298;54.918;73.504;2024-03-02T11:41:08;3.05;;;1.30;;
59486;SDS011;45298;54.918;73.504;2024-03-02T11:43:40;3.63;;;1.60;;
59486;SDS011;45298;54.918;73.504;2024-03-02T11:46:12;1.67;;;1.13;;
59486;SDS011;45298;54.918;73.504;2024-03-02T11:48:43;1.58;;;0.73;;
59486;SDS011;45298;54.918;73.504;2024-03-02T11:51:14;0.63;;;0.45;;
59486;SDS011;45298;54.918;73.504;2024-03-02T11:53:42;1.20;;;0.80;;
59486;SDS011;45298;54.918;73.504;2024-03-02T11:56:13;0.60;;;0.60;;
59486;SDS011;45298;54.918;73.504;2024-03-02T11:58:42;3.28;;;1.05;;
59486;SDS011;45298;54.918;73.504;2024-03-02T12:01:12;1.40;;;0.82;;
59486;SDS011;45298;54.918;73.504;2024-03-02T12:03:41;1.63;;;0.93;;
59486;SDS011;45298;54.918;73.504;2024-03-02T12:06:11;1.40;;;1.30;;
59486;SDS011;45298;54.918;73.504;2024-03-02T12:08:41;1.27;;;1.13;;
59486;SDS011;45298;54.918;73.504;2024-03-02T12:11:12;1.13;;;0.70;;
59486;SDS011;45298;54.918;73.504;2024-03-02T12:13:51;0.77;;;0.75;;
59486;SDS011;45298;54.918;73.504;2024-03-02T12:16:24;2.33;;;1.30;;
59486;SDS011;45298;54.918;73.504;2024-03-02T12:18:54;2.20;;;0.75;;
59486;SDS011;45298;54.918;73.504;2024-03-02T12:21:23;1.85;;;1.15;;
59486;SDS011;45298;54.918;73.504;2024-03-02T12:23:52;1.98;;;1.00;;
59486;SDS011;45298;54.918;73.504;2024-03-02T12:26:22;2.13;;;1.45;;
59486;SDS011;45298;54.918;73.504;2024-03-02T12:28:51;4.65;;;2.20;;
59486;SDS011;45298;54.918;73.504;2024-03-02T12:31:21;1.80;;;0.70;;
59486;SDS011;45298;54.918;73.504;2024-03-02T12:33:54;3.65;;;1.35;;
59486;SDS011;45298;54.918;73.504;2024-03-02T12:36:24;4.22;;;1.95;;
59486;SDS011;45298;54.918;73.504;2024-03-02T12:38:53;5.97;;;2.40;;
59486;SDS011;45298;54.918;73.504;2024-03-02T12:41:25;7.22;;;1.33;;
59486;SDS011;45298;54.918;73.504;2024-03-02T12:43:55;2.55;;;1.85;;
59486;SDS011;45298;54.918;73.504;2024-03-02T12:46:24;1.70;;;1.45;;
59486;SDS011;45298;54.918;73.504;2024-03-02T12:48:53;3.65;;;1.98;;
59486;SDS011;45298;54.918;73.504;2024-03-02T12:51:22;3.60;;;2.05;;
59486;SDS011;45298;54.918;73.504;2024-03-02T12:53:54;2.38;;;1.33;;
59486;SDS011;45298;54.918;73.504;2024-03-02T12:56:24;1.05;;;0.90;;
59486;SDS011;45298;54.918;73.504;2024-03-02T12:58:54;4.05;;;1.75;;
59486;SDS011;45298;54.918;73.504;2024-03-02T13:01:24;2.72;;;1.55;;
59486;SDS011;45298;54.918;73.504;2024-03-02T13:03:53;7.53;;;2.00;;
59486;SDS011;45298;54.918;73.504;2024-03-02T13:06:25;12.25;;;5.95;;
59486;SDS011;45298;54.918;73.504;2024-03-02T13:08:56;10.18;;;4.25;;
59486;SDS011;45298;54.918;73.504;2024-03-02T13:11:24;5.07;;;2.83;;
59486;SDS011;45298;54.918;73.504;2024-03-02T13:13:54;24.10;;;9.25;;
59486;SDS011;45298;54.918;73.504;2024-03-02T13:16:23;8.45;;;5.30;;
59486;SDS011;45298;54.918;73.504;2024-03-02T13:19:02;14.70;;;6.32;;
59486;SDS011;45298;54.918;73.504;2024-03-02T13:21:32;30.10;;;9.82;;
59486;SDS011;45298;54.918;73.504;2024-03-02T13:24:00;13.90;;;6.40;;
59486;SDS011;45298;54.918;73.504;2024-03-02T13:26:30;4.80;;;2.83;;
59486;SDS011;45298;54.918;73.504;2024-03-02T13:28:58;26.27;;;7.32;;
59486;SDS011;45298;54.918;73.504;2024-03-02T13:31:27;6.90;;;4.40;;
59486;SDS011;45298;54.918;73.504;2024-03-02T13:33:56;3.10;;;2.80;;
59486;SDS011;45298;54.918;73.504;2024-03-02T13:36:25;3.40;;;2.28;;
59486;SDS011;45298;54.918;73.504;2024-03-02T13:38:54;2.35;;;1.88;;
59486;SDS011;45298;54.918;73.504;2024-03-02T13:41:22;3.67;;;2.85;;
59486;SDS011;45298;54.918;73.504;2024-03-02T13:43:51;4.55;;;2.67;;
59486;SDS011;45298;54.918;73.504;2024-03-02T13:46:21;5.47;;;2.55;;
59486;SDS011;45298;54.918;73.504;2024-03-02T13:48:50;70.32;;;23.40;;
59486;SDS011;45298;54.918;73.504;2024-03-02T13:51:24;136.18;;;39.92;;
59486;SDS011;45298;54.918;73.504;2024-03-02T13:53:53;132.75;;;36.15;;
59486;SDS011;45298;54.918;73.504;2024-03-02T13:56:22;57.33;;;17.10;;
59486;SDS011;45298;54.918;73.504;2024-03-02T13:58:51;19.05;;;7.03;;
59486;SDS011;45298;54.918;73.504;2024-03-02T14:01:20;46.35;;;15.60;;
59486;SDS011;45298;54.918;73.504;2024-03-02T14:03:50;2.78;;;1.35;;
59486;SDS011;45298;54.918;73.504;2024-03-02T14:06:19;21.50;;;4.95;;
59486;SDS011;45298;54.918;73.504;2024-03-02T14:08:48;93.47;;;24.00;;
59486;SDS011;45298;54.918;73.504;2024-03-02T14:11:35;34.88;;;14.93;;
59486;SDS011;45298;54.918;73.504;2024-03-02T14:14:04;5.30;;;2.05;;
59486;SDS011;45298;54.918;73.504;2024-03-02T14:16:33;5.20;;;3.47;;
59486;SDS011;45298;54.918;73.504;2024-03-02T14:19:02;4.43;;;2.33;;
59486;SDS011;45298;54.918;73.504;2024-03-02T14:21:33;7.70;;;4.22;;
59486;SDS011;45298;54.918;73.504;2024-03-02T14:24:03;5.15;;;3.35;;
59486;SDS011;45298;54.918;73.504;2024-03-02T14:26:33;12.30;;;2.83;;
59486;SDS011;45298;54.918;73.504;2024-03-02T14:29:02;5.47;;;2.55;;
59486;SDS011;45298;54.918;73.504;2024-03-02T14:31:32;8.55;;;3.95;;
59486;SDS011;45298;54.918;73.504;2024-03-02T14:34:01;12.50;;;5.80;;
59486;SDS011;45298;54.918;73.504;2024-03-02T14:36:33;6.25;;;4.03;;
59486;SDS011;45298;54.918;73.504;2024-03-02T14:39:03;10.27;;;7.07;;
59486;SDS011;45298;54.918;73.504;2024-03-02T14:41:32;4.13;;;3.33;;
59486;SDS011;45298;54.918;73.504;2024-03-02T14:44:01;10.45;;;5.47;;
59486;SDS011;45298;54.918;73.504;2024-03-02T14:46:30;5.68;;;2.42;;
59486;SDS011;45298;54.918;73.504;2024-03-02T14:48:59;2.25;;;1.27;;
59486;SDS011;45298;54.918;73.504;2024-03-02T14:51:28;5.78;;;2.30;;
59486;SDS011;45298;54.918;73.504;2024-03-02T14:53:58;3.28;;;1.67;;
59486;SDS011;45298;54.918;73.504;2024-03-02T14:56:26;4.07;;;2.05;;
59486;SDS011;45298;54.918;73.504;2024-03-02T14:58:56;4.32;;;2.90;;
59486;SDS011;45298;54.918;73.504;2024-03-02T15:01:25;5.10;;;3.05;;